Thursday, July 24, 2014
19:24 UTC
  |  Log In   |  Register Free
Airport Search:

Lawrence Smith Memorial Airport
(KLRY)

Lawrence Smith Memorial Airport Diagram
No Airport Diagram Available

FAA data valid effective July 24, 2014 until September 18, 2014 (unless otherwise noted).

 
 
 
 
 
 
 
 
 
 
 
 
 
 

Current Aviation Weather for Lawrence Smith Memorial Airport (KLRY)

The most recent METAR observation for KLXT was updated at: 1753 UTC
METAR Summary (Translated METAR)
KLXT
241753Z AUTO 13010G14KT 10SM CLR 26/14 A3015 RMK AO2 SLP201 T02560144 10261 20178 58007
KMKC
(14.2 nm NW from KLXT)
241754Z 14010G16KT 10SM CLR 27/14 A3013 RMK AO2 SLP194 T02720139 10278 20200 58008
TAF Summary (Translated TAF)
KMKC
(14.2 nm NW from KLXT)
241725Z 2418/2518 14010KT P6SM FEW250 FM251400 19014G22KT P6SM BKN200
  Airport Weather Conditions for KLRY

Current weather conditions are
not available for LRY


The nearest NOAA weather station
is at LXT, (21 nm NW from LRY)
  
 Current Weather at LXT
81° F
Fair
East winds at 10.4 mph
LXT NOAA Radar

Pressure: 30.14 in
Humidity: 45%
Wind: East at 10.4 MPH (9 KT)
Dew Point: 57.9°F
Visibility: 10.00 mi


Airport Weather Forecast for KLRY

Translated METAR and TAF for KLXT
Translated METAR for KLXT (1918 UTC 24 July 2014)
found at http://aviationweather.gov/adds/metars/
 
METAR text: KLXT 241853Z AUTO 10009KT 080V140 10SM CLR 27/14 A3014 RMK AO2 SLP198 T02720144
Conditions at: KLXT (LEES SUMMIT MUNI, MO, US) observed 1853 UTC 24 July 2014
Temperature: 27.2°C (81°F)
Dewpoint: 14.4°C (58°F) [RH = 45%]
Pressure (altimeter): 30.14 inches Hg (1020.7 mb)
[Sea-level pressure: 1019.8 mb]
Winds: from the E (100 degrees) at 10 MPH (9 knots; 4.7 m/s)
Visibility: 10 or more miles (16+ km)
Ceiling: at least 12,000 feet AGL
Clouds: sky clear below 12,000 feet AGL
Weather: automated observation with no human augmentation;
there may or may not be significant weather present at this time
Translated TAF for KLXT

There is no translated TAF available for this airport

Find All Airport Services Find A Hotel Find A Rental Car Find A Golf Course Find A Restaurant $100 Hamburger



FBO's on the Field
FBO Company Facility Photos Services Transportation Aviation Fuel Prices: Prices include tax
Catering Weather Repair Courtesy Rental Type 100LL JetA JetA+ MOGAS 8087
 
City of Harrisonville

This FBO has not yet been rated
FS:Phillips66
Last Updated: Jun-23
Login to update fuel prices
SS:
Contact City of HarrisonvilleMore FBO Information
 
Add another FBO Facility Photos Catering Weather Repair Courtesy Rental Type 100LL JetA JetA+ MOGAS 8087
Services Transportation Aviation Fuel Prices: Prices include tax


GlobalAir.com Airport Resource Center model-print
model-print
model-print
model-print